createdAt,value
2023-03-11T00:03:14.226Z,97160.41
2023-03-11T00:08:19.285Z,97178.03
2023-03-11T00:10:48.088Z,97175.78
2023-03-11T00:13:19.026Z,97174.72
2023-03-11T00:15:48.761Z,97191.66
2023-03-11T00:18:28.573Z,97185.25
2023-03-11T00:20:57.388Z,97205.19
2023-03-11T00:23:26.539Z,97206.31
2023-03-11T00:28:25.701Z,97221.50
2023-03-11T00:30:52.752Z,97227.09
2023-03-11T00:33:19.310Z,97232.41
2023-03-11T00:35:45.853Z,97232.44
2023-03-11T00:38:15.469Z,97244.91
2023-03-11T00:40:45.847Z,97245.66
2023-03-11T00:43:16.194Z,97247.28
2023-03-11T00:45:43.532Z,97250.44
2023-03-11T00:48:12.058Z,97277.28
2023-03-11T00:50:38.858Z,97267.59
2023-03-11T00:53:08.474Z,97260.66
2023-03-11T00:55:37.900Z,97263.59
2023-03-11T00:58:06.807Z,97259.03
2023-03-11T01:00:33.785Z,97273.53
2023-03-11T01:03:00.748Z,97272.56
2023-03-11T01:05:30.434Z,97271.59
2023-03-11T01:07:57.060Z,97273.97
2023-03-11T01:10:24.141Z,97267.41
2023-03-11T01:12:59.205Z,97269.63
2023-03-11T01:15:42.022Z,97273.78
2023-03-11T01:18:20.898Z,97269.25
2023-03-11T01:20:49.313Z,97272.56
2023-03-11T01:23:50.176Z,97283.06
2023-03-11T01:29:17.520Z,97278.53
2023-03-11T01:31:52.056Z,97279.41
2023-03-11T01:37:18.231Z,97305.19
2023-03-11T01:39:48.725Z,97299.00
2023-03-11T01:48:47.521Z,97327.13
2023-03-11T01:51:26.312Z,97331.13
2023-03-11T01:54:05.162Z,97327.50
2023-03-11T01:56:43.274Z,97339.47
2023-03-11T01:59:33.150Z,97345.38
2023-03-11T02:05:06.636Z,97350.59
2023-03-11T02:07:36.855Z,97362.25
2023-03-11T02:12:56.998Z,97365.69
2023-03-11T02:15:28.334Z,97352.13
2023-03-11T02:18:07.300Z,97379.97
2023-03-11T02:21:03.679Z,97368.75
2023-03-11T02:23:52.467Z,97374.38
2023-03-11T02:29:21.482Z,97374.41
2023-03-11T02:31:54.125Z,97375.00
2023-03-11T02:34:28.718Z,97384.09
2023-03-11T02:37:02.112Z,97380.13
2023-03-11T02:39:38.943Z,97375.44
2023-03-11T02:42:29.093Z,97371.03
2023-03-11T02:45:11.462Z,97374.63
2023-03-11T02:47:49.120Z,97377.63
2023-03-11T02:50:21.558Z,97376.84
2023-03-11T02:53:04.354Z,97384.34
2023-03-11T02:55:35.064Z,97382.19
2023-03-11T02:58:12.353Z,97381.41
2023-03-11T03:00:42.835Z,97386.16
2023-03-11T03:03:26.564Z,97390.34
2023-03-11T03:06:03.680Z,97395.47
2023-03-11T03:08:39.224Z,97385.97
2023-03-11T03:11:18.504Z,97394.88
2023-03-11T03:16:19.284Z,97396.72
2023-03-11T03:18:51.266Z,97400.63
2023-03-11T03:21:21.728Z,97405.59
2023-03-11T03:23:50.465Z,97410.53
2023-03-11T03:26:20.982Z,97415.69
2023-03-11T03:28:56.110Z,97418.09
2023-03-11T03:31:26.280Z,97417.31
2023-03-11T03:33:57.019Z,97422.69
2023-03-11T03:36:30.564Z,97435.38
2023-03-11T03:39:02.736Z,97433.56
2023-03-11T03:41:33.406Z,97433.38
2023-03-11T03:44:07.191Z,97431.81
2023-03-11T03:49:11.361Z,97444.06
2023-03-11T03:51:53.922Z,97445.03
2023-03-11T03:54:30.312Z,97452.00
2023-03-11T03:57:05.281Z,97456.72
2023-03-11T03:59:37.828Z,97462.47
2023-03-11T04:02:08.667Z,97469.81
2023-03-11T04:04:49.721Z,97474.97
2023-03-11T04:07:29.943Z,97477.94
2023-03-11T04:10:05.607Z,97478.94
2023-03-11T04:12:37.058Z,97484.09
2023-03-11T04:15:10.564Z,97478.53
2023-03-11T04:17:41.848Z,97487.28
2023-03-11T04:20:18.838Z,97492.00
2023-03-11T04:25:19.210Z,97508.25
2023-03-11T04:27:53.025Z,97503.91
2023-03-11T04:30:20.635Z,97510.25
2023-03-11T04:32:48.275Z,97510.63
2023-03-11T04:35:23.847Z,97511.03
2023-03-11T04:37:52.345Z,97506.09
2023-03-11T04:40:30.814Z,97512.41
2023-03-11T04:43:01.135Z,97498.16
2023-03-11T04:45:31.954Z,97511.63
2023-03-11T04:48:01.983Z,97513.19
2023-03-11T04:50:30.151Z,97515.00
2023-03-11T04:53:06.236Z,97517.97
2023-03-11T04:55:38.154Z,97515.78
2023-03-11T04:58:11.083Z,97529.84
2023-03-11T05:00:38.010Z,97529.22
2023-03-11T05:03:13.952Z,97530.25
2023-03-11T05:05:46.689Z,97530.03
2023-03-11T05:08:19.469Z,97541.91
2023-03-11T05:10:52.468Z,97536.34
2023-03-11T05:13:24.454Z,97543.69
2023-03-11T05:18:24.925Z,97547.22
2023-03-11T05:20:53.737Z,97553.00
2023-03-11T05:23:22.448Z,97543.88
2023-03-11T05:25:55.546Z,97548.44
2023-03-11T05:28:26.094Z,97565.25
2023-03-11T05:33:39.118Z,97566.66
2023-03-11T05:36:10.029Z,97561.09
2023-03-11T05:41:12.812Z,97580.28
2023-03-11T05:43:41.315Z,97578.72
2023-03-11T05:46:25.725Z,97571.00
2023-03-11T05:49:01.396Z,97578.06
2023-03-11T05:51:38.329Z,97573.72
2023-03-11T05:54:11.382Z,97579.09
2023-03-11T05:59:14.332Z,97577.88
2023-03-11T06:01:44.101Z,97582.03
2023-03-11T06:04:15.639Z,97595.09
2023-03-11T06:06:42.994Z,97599.28
2023-03-11T06:09:21.558Z,97599.88
2023-03-11T06:11:56.764Z,97597.91
2023-03-11T06:14:24.501Z,97601.22
2023-03-11T06:17:00.839Z,97610.94
2023-03-11T06:22:29.791Z,97617.94
2023-03-11T06:25:01.213Z,97624.31
2023-03-11T06:27:29.615Z,97627.81
2023-03-11T06:30:02.073Z,97620.50
2023-03-11T06:32:35.249Z,97623.91
2023-03-11T06:35:08.502Z,97625.09
2023-03-11T06:37:40.008Z,97634.78
2023-03-11T06:40:13.630Z,97641.31
2023-03-11T06:42:45.829Z,97646.84
2023-03-11T06:45:13.078Z,97663.50
2023-03-11T06:47:46.350Z,97655.81
2023-03-11T06:50:20.337Z,97659.97
2023-03-11T06:52:47.542Z,97664.47
2023-03-11T06:55:14.478Z,97673.34
2023-03-11T06:57:48.160Z,97682.06
2023-03-11T07:00:17.404Z,97687.25
2023-03-11T07:02:49.109Z,97691.44
2023-03-11T07:07:57.074Z,97699.56
2023-03-11T07:10:27.469Z,97700.56
2023-03-11T07:12:55.644Z,97705.66
2023-03-11T07:15:24.881Z,97705.09
2023-03-11T07:17:55.732Z,97713.06
2023-03-11T07:20:25.387Z,97718.63
2023-03-11T07:23:00.897Z,97716.41
2023-03-11T07:27:54.493Z,97718.41
2023-03-11T07:30:21.292Z,97719.19
2023-03-11T07:32:47.926Z,97714.84
2023-03-11T07:35:15.160Z,97724.53
2023-03-11T07:37:41.858Z,97732.47
2023-03-11T07:42:37.180Z,97724.59
2023-03-11T07:45:04.002Z,97728.31
2023-03-11T07:47:30.781Z,97736.28
2023-03-11T07:49:57.520Z,97740.06
2023-03-11T07:52:24.335Z,97754.78
2023-03-11T07:57:17.791Z,97759.03
2023-03-11T08:02:12.039Z,97769.63
2023-03-11T08:04:38.893Z,97770.84
2023-03-11T08:07:05.714Z,97776.00
2023-03-11T08:09:32.693Z,97771.25
2023-03-11T08:11:59.523Z,97780.38
2023-03-11T08:14:26.480Z,97788.50
2023-03-11T08:16:53.840Z,97783.53
2023-03-11T08:19:20.672Z,97786.91
2023-03-11T08:21:47.393Z,97788.91
2023-03-11T08:24:14.838Z,97786.03
2023-03-11T08:26:42.403Z,97792.97
2023-03-11T08:29:09.464Z,97793.75
2023-03-11T08:31:36.611Z,97795.75
2023-03-11T08:34:06.220Z,97807.75
2023-03-11T08:36:33.718Z,97813.47
2023-03-11T08:39:01.235Z,97815.28
2023-03-11T08:41:28.499Z,97816.00
2023-03-11T08:43:55.394Z,97820.66
2023-03-11T08:46:27.000Z,97821.13
2023-03-11T08:48:55.638Z,97827.94
2023-03-11T08:51:23.804Z,97828.09
2023-03-11T08:53:51.739Z,97825.81
2023-03-11T08:56:19.155Z,97840.78
2023-03-11T08:58:46.524Z,97846.50
2023-03-11T09:01:13.660Z,97844.50
2023-03-11T09:03:41.057Z,97837.44
2023-03-11T09:06:11.714Z,97843.69
2023-03-11T09:08:38.488Z,97846.81
2023-03-11T09:11:05.841Z,97849.28
2023-03-11T09:13:33.068Z,97858.09
2023-03-11T09:15:59.876Z,97857.06
2023-03-11T09:18:27.441Z,97853.50
2023-03-11T09:20:58.319Z,97858.50
2023-03-11T09:23:25.327Z,97856.56
2023-03-11T09:25:52.693Z,97855.59
2023-03-11T09:28:19.183Z,97862.72
2023-03-11T09:33:12.287Z,97863.50
2023-03-11T09:35:39.717Z,97864.91
2023-03-11T09:38:06.645Z,97871.84
2023-03-11T09:40:44.402Z,97877.41
2023-03-11T09:43:25.008Z,97878.78
2023-03-11T09:46:00.548Z,97881.59
2023-03-11T09:51:09.592Z,97880.84
2023-03-11T09:56:18.970Z,97882.28
2023-03-11T10:01:24.223Z,97892.13
2023-03-11T10:03:54.535Z,97890.91
2023-03-11T10:06:26.729Z,97897.63
2023-03-11T10:09:03.233Z,97903.22
2023-03-11T10:14:20.688Z,97904.16
2023-03-11T10:16:55.656Z,97905.56
2023-03-11T10:22:32.094Z,97899.50
2023-03-11T10:25:07.884Z,97904.19
2023-03-11T10:30:36.316Z,97908.34
2023-03-11T10:33:39.400Z,97911.16
2023-03-11T10:36:17.448Z,97920.09
2023-03-11T10:39:00.966Z,97912.16
2023-03-11T10:41:41.414Z,97908.81
2023-03-11T10:44:24.866Z,97900.91
2023-03-11T10:46:54.818Z,97907.91
2023-03-11T10:49:24.076Z,97902.13
2023-03-11T10:52:10.865Z,97917.06
2023-03-11T10:57:36.654Z,97921.69
2023-03-11T11:00:17.411Z,97926.25
2023-03-11T11:02:54.036Z,97919.50
2023-03-11T11:05:20.555Z,97916.53
2023-03-11T11:10:21.467Z,97948.13
2023-03-11T11:13:06.778Z,97943.34
2023-03-11T11:15:40.748Z,97940.16
2023-03-11T11:18:33.529Z,97934.19
2023-03-11T11:21:07.587Z,97942.34
2023-03-11T11:23:39.763Z,97941.34
2023-03-11T11:26:24.503Z,97937.97
2023-03-11T11:29:09.088Z,97938.81
2023-03-11T11:31:40.294Z,97927.97
2023-03-11T11:34:31.965Z,97931.81
2023-03-11T11:37:01.189Z,97942.69
2023-03-11T11:39:32.376Z,97942.63
2023-03-11T11:42:00.794Z,97939.13
2023-03-11T11:44:34.092Z,97935.16
2023-03-11T11:47:13.650Z,97931.34
2023-03-11T11:52:25.153Z,97937.75
2023-03-11T11:55:02.800Z,97947.66
2023-03-11T11:57:32.634Z,97932.31
2023-03-11T12:00:05.424Z,97933.91
2023-03-11T12:05:31.022Z,97926.97
2023-03-11T12:08:08.938Z,97930.63
2023-03-11T12:10:41.402Z,97924.25
2023-03-11T12:13:30.652Z,97922.91
2023-03-11T12:18:58.396Z,97922.72
2023-03-11T12:24:34.406Z,97912.09
2023-03-11T12:27:09.065Z,97924.97
2023-03-11T12:29:46.761Z,97924.28
2023-03-11T12:32:36.771Z,97919.28
2023-03-11T12:35:18.400Z,97920.34
2023-03-11T12:37:45.613Z,97919.91
2023-03-11T12:43:30.124Z,97914.25
2023-03-11T12:46:01.134Z,97914.28
2023-03-11T12:48:27.810Z,97913.84
2023-03-11T12:50:55.062Z,97917.31
2023-03-11T12:53:41.692Z,97914.97
2023-03-11T12:56:26.407Z,97911.97
2023-03-11T12:58:59.402Z,97910.31
2023-03-11T13:04:38.898Z,97923.03
2023-03-11T13:07:26.163Z,97934.88
2023-03-11T13:10:12.842Z,97922.13
2023-03-11T13:15:20.434Z,97928.84
2023-03-11T13:17:58.826Z,97922.16
2023-03-11T13:20:44.560Z,97924.63
2023-03-11T13:23:13.932Z,97923.16
2023-03-11T13:28:31.064Z,97930.41
2023-03-11T13:31:38.436Z,97941.09
2023-03-11T13:34:05.252Z,97954.88
2023-03-11T13:36:56.550Z,97957.75
2023-03-11T13:42:20.984Z,97970.81
2023-03-11T13:47:17.951Z,97978.63
2023-03-11T13:49:53.793Z,97978.63
2023-03-11T13:52:27.660Z,97978.84
2023-03-11T13:55:01.427Z,97987.97
2023-03-11T13:57:35.506Z,97985.53
2023-03-11T14:00:24.363Z,97997.09
2023-03-11T14:02:55.976Z,97995.19
2023-03-11T14:05:27.441Z,97993.97
2023-03-11T14:07:54.861Z,97995.59
2023-03-11T14:10:23.877Z,97994.78
2023-03-11T14:15:27.506Z,98003.53
2023-03-11T14:18:29.305Z,98004.50
2023-03-11T14:21:00.721Z,98007.84
2023-03-11T14:23:33.616Z,98000.66
2023-03-11T14:26:06.343Z,98000.72
2023-03-11T14:28:41.204Z,97998.63
2023-03-11T14:31:08.309Z,97998.44
2023-03-11T14:33:35.260Z,98010.41
2023-03-11T14:36:06.950Z,98007.25
2023-03-11T14:38:33.962Z,98017.38
2023-03-11T14:41:05.420Z,98021.00
2023-03-11T14:43:38.007Z,98015.84
2023-03-11T14:46:11.157Z,98023.03
2023-03-11T14:48:44.197Z,98009.09
2023-03-11T14:51:29.939Z,98024.19
2023-03-11T14:54:08.505Z,98022.53
2023-03-11T14:56:40.423Z,98031.34
2023-03-11T14:59:15.216Z,98022.63
2023-03-11T15:01:43.947Z,98021.41
2023-03-11T15:04:34.380Z,98025.78
2023-03-11T15:07:04.351Z,98033.94
2023-03-11T15:12:01.017Z,98036.91
2023-03-11T15:14:36.489Z,98042.28
2023-03-11T15:17:36.173Z,98039.13
2023-03-11T15:20:24.239Z,98043.06
2023-03-11T15:23:04.472Z,98044.47
2023-03-11T15:25:34.641Z,98043.88
2023-03-11T15:28:24.480Z,98037.72
2023-03-11T15:31:12.911Z,98049.03
2023-03-11T15:33:41.716Z,98043.69
2023-03-11T15:36:33.524Z,98047.25
2023-03-11T15:39:17.937Z,98046.06
2023-03-11T15:41:47.985Z,98048.06
2023-03-11T15:44:30.893Z,98043.88
2023-03-11T15:47:01.028Z,98042.69
2023-03-11T15:49:29.436Z,98048.06
2023-03-11T15:52:02.655Z,98061.16
2023-03-11T15:54:29.822Z,98052.22
2023-03-11T15:57:00.346Z,98055.00
2023-03-11T15:59:28.783Z,98063.56
2023-03-11T16:01:56.057Z,98067.34
2023-03-11T16:04:25.464Z,98066.53
2023-03-11T16:07:06.886Z,98065.16
2023-03-11T16:09:34.849Z,98061.97
2023-03-11T16:12:02.455Z,98063.56
2023-03-11T16:14:29.343Z,98060.16
2023-03-11T16:16:56.229Z,98054.63
2023-03-11T16:19:22.844Z,98054.00
2023-03-11T16:21:50.636Z,98057.97
2023-03-11T16:24:22.562Z,98059.78
2023-03-11T16:26:52.029Z,98059.38
2023-03-11T16:29:19.968Z,98058.38
2023-03-11T16:31:51.082Z,98066.34
2023-03-11T16:34:17.778Z,98061.75
2023-03-11T16:36:45.078Z,98065.28
2023-03-11T16:39:25.081Z,98063.31
2023-03-11T16:44:20.896Z,98076.63
2023-03-11T16:46:50.919Z,98085.56
2023-03-11T16:49:18.079Z,98080.63
2023-03-11T16:51:48.531Z,98087.19
2023-03-11T16:54:15.825Z,98092.56
2023-03-11T16:56:55.028Z,98086.78
2023-03-11T16:59:28.098Z,98091.75
2023-03-11T17:04:22.850Z,98095.50
2023-03-11T17:06:50.103Z,98097.47
2023-03-11T17:09:17.231Z,98108.38
2023-03-11T17:11:56.744Z,98124.28
2023-03-11T17:14:24.437Z,98129.84
2023-03-11T17:16:53.594Z,98129.41
2023-03-11T17:19:20.240Z,98134.97
2023-03-11T17:21:49.858Z,98129.66
2023-03-11T17:24:17.457Z,98131.03
2023-03-11T17:26:53.178Z,98127.66
2023-03-11T17:29:22.269Z,98134.59
2023-03-11T17:31:54.990Z,98136.56
2023-03-11T17:34:24.807Z,98134.03
2023-03-11T17:36:51.907Z,98144.94
2023-03-11T17:39:19.436Z,98150.31
2023-03-11T17:41:46.580Z,98153.88
2023-03-11T17:44:21.051Z,98159.84
2023-03-11T17:46:48.745Z,98156.06
2023-03-11T17:49:34.555Z,98161.84
2023-03-11T17:52:06.254Z,98162.03
2023-03-11T17:54:49.553Z,98166.38
2023-03-11T17:57:29.106Z,98171.13
2023-03-11T18:00:21.310Z,98166.75
2023-03-11T18:02:50.289Z,98176.50
2023-03-11T18:05:19.706Z,98182.59
2023-03-11T18:10:31.750Z,98188.78
2023-03-11T18:13:06.426Z,98190.38
2023-03-11T18:15:39.088Z,98198.53
2023-03-11T18:18:07.993Z,98205.66
2023-03-11T18:20:40.658Z,98199.09
2023-03-11T18:23:07.764Z,98200.31
2023-03-11T18:25:41.581Z,98206.84
2023-03-11T18:28:08.760Z,98208.00
2023-03-11T18:30:42.219Z,98217.09
2023-03-11T18:33:09.540Z,98212.75
2023-03-11T18:35:37.443Z,98204.03
2023-03-11T18:38:04.517Z,98215.72
2023-03-11T18:40:31.357Z,98219.03
2023-03-11T18:42:58.416Z,98209.91
2023-03-11T18:45:26.160Z,98212.34
2023-03-11T18:50:22.852Z,98222.09
2023-03-11T18:55:27.246Z,98230.41
2023-03-11T19:00:23.822Z,98223.47
2023-03-11T19:02:52.273Z,98224.28
2023-03-11T19:05:20.847Z,98222.69
2023-03-11T19:07:54.268Z,98216.94
2023-03-11T19:10:24.026Z,98223.88
2023-03-11T19:12:55.038Z,98223.53
2023-03-11T19:15:23.342Z,98221.75
2023-03-11T19:18:05.895Z,98218.78
2023-03-11T19:20:37.970Z,98230.28
2023-03-11T19:23:10.421Z,98235.00
2023-03-11T19:25:42.611Z,98229.38
2023-03-11T19:28:17.829Z,98225.41
2023-03-11T19:30:45.086Z,98226.53
2023-03-11T19:33:15.252Z,98226.44
2023-03-11T19:35:43.609Z,98231.94
2023-03-11T19:38:17.669Z,98228.16
2023-03-11T19:40:59.193Z,98229.38
2023-03-11T19:43:39.416Z,98222.97
2023-03-11T19:46:17.309Z,98226.34
2023-03-11T19:49:18.475Z,98223.94
2023-03-11T19:54:45.142Z,98215.88
2023-03-11T19:57:24.197Z,98224.59
2023-03-11T20:00:12.075Z,98229.34
2023-03-11T20:02:47.537Z,98221.75
2023-03-11T20:05:37.233Z,98232.91
2023-03-11T20:08:17.490Z,98231.69
2023-03-11T20:10:51.009Z,98230.94
2023-03-11T20:13:36.306Z,98234.03
2023-03-11T20:16:18.753Z,98239.31
2023-03-11T20:19:01.508Z,98246.47
2023-03-11T20:21:41.360Z,98252.94
2023-03-11T20:24:13.625Z,98252.09
2023-03-11T20:26:51.119Z,98261.81
2023-03-11T20:29:32.249Z,98263.09
2023-03-11T20:32:08.011Z,98256.28
2023-03-11T20:34:46.215Z,98256.88
2023-03-11T20:37:23.319Z,98257.09
2023-03-11T20:39:51.660Z,98260.69
2023-03-11T20:42:24.675Z,98256.44
2023-03-11T20:47:36.735Z,98264.81
2023-03-11T20:50:05.648Z,98259.09
2023-03-11T20:52:42.294Z,98255.47
2023-03-11T20:55:10.717Z,98254.84
2023-03-11T20:57:41.689Z,98257.16
2023-03-11T21:00:23.562Z,98258.59
2023-03-11T21:02:53.103Z,98263.59
2023-03-11T21:05:22.842Z,98264.44
2023-03-11T21:07:50.432Z,98262.59
2023-03-11T21:10:18.057Z,98265.28
2023-03-11T21:12:47.908Z,98263.63
2023-03-11T21:15:15.381Z,98266.56
2023-03-11T21:17:45.937Z,98273.16
2023-03-11T21:22:46.470Z,98270.78
2023-03-11T21:25:13.700Z,98277.28
2023-03-11T21:27:40.918Z,98276.94
2023-03-11T21:30:15.499Z,98278.19
2023-03-11T21:32:45.718Z,98286.78
2023-03-11T21:35:15.563Z,98284.75
2023-03-11T21:37:46.685Z,98284.06
2023-03-11T21:40:14.321Z,98287.06
2023-03-11T21:45:10.741Z,98273.66
2023-03-11T21:47:40.272Z,98280.66
2023-03-11T21:50:07.843Z,98277.13
2023-03-11T21:52:34.944Z,98273.38
2023-03-11T21:57:29.570Z,98275.69
2023-03-11T22:02:23.632Z,98280.06
2023-03-11T22:04:51.067Z,98276.31
2023-03-11T22:07:18.485Z,98277.84
2023-03-11T22:09:45.427Z,98284.56
2023-03-11T22:12:12.668Z,98281.91
2023-03-11T22:19:33.513Z,98289.41
2023-03-11T22:22:00.652Z,98295.28
2023-03-11T22:24:30.478Z,98299.28
2023-03-11T22:27:00.936Z,98299.81
2023-03-11T22:29:27.764Z,98306.34
2023-03-11T22:31:57.811Z,98299.44
2023-03-11T22:34:24.677Z,98310.75
2023-03-11T22:36:52.522Z,98308.69
2023-03-11T22:39:22.812Z,98303.03
2023-03-11T22:41:52.911Z,98303.63
2023-03-11T22:44:21.121Z,98295.47
2023-03-11T22:46:47.946Z,98299.28
2023-03-11T22:49:15.008Z,98302.16
2023-03-11T22:51:41.794Z,98301.25
2023-03-11T22:54:11.899Z,98309.94
2023-03-11T22:56:39.516Z,98312.13
2023-03-11T22:59:06.475Z,98313.25
2023-03-11T23:01:33.358Z,98310.22
2023-03-11T23:06:30.324Z,98320.19
2023-03-11T23:08:57.260Z,98313.19
2023-03-11T23:11:23.920Z,98324.28
2023-03-11T23:13:51.240Z,98320.69
2023-03-11T23:16:22.921Z,98328.78
2023-03-11T23:18:51.969Z,98332.38
2023-03-11T23:21:28.095Z,98326.28
2023-03-11T23:26:22.867Z,98332.69
2023-03-11T23:28:51.310Z,98335.41
2023-03-11T23:31:19.982Z,98337.31
2023-03-11T23:33:46.932Z,98339.69
2023-03-11T23:36:17.717Z,98346.44
2023-03-11T23:38:45.096Z,98341.00
2023-03-11T23:41:20.080Z,98324.91
2023-03-11T23:43:49.813Z,98331.00
2023-03-11T23:46:17.598Z,98329.88
2023-03-11T23:48:46.977Z,98331.06
2023-03-11T23:51:16.867Z,98349.25
2023-03-11T23:53:43.605Z,98337.88
2023-03-11T23:56:17.223Z,98337.34
2023-03-11T23:58:47.827Z,98347.19
